sensor_id;sensor_type;location;lat;lon;timestamp;P1;durP1;ratioP1;P2;durP2;ratioP2
16228;SDS011;8222;51.462;12.630;2023-06-04T00:00:04;3.97;;;3.57;;
16228;SDS011;8222;51.462;12.630;2023-06-04T00:02:32;3.47;;;3.17;;
16228;SDS011;8222;51.462;12.630;2023-06-04T00:05:00;4.97;;;3.30;;
16228;SDS011;8222;51.462;12.630;2023-06-04T00:07:28;4.83;;;2.90;;
16228;SDS011;8222;51.462;12.630;2023-06-04T00:09:54;3.35;;;2.97;;
16228;SDS011;8222;51.462;12.630;2023-06-04T00:12:23;3.33;;;2.97;;
16228;SDS011;8222;51.462;12.630;2023-06-04T00:14:48;3.47;;;3.17;;
16228;SDS011;8222;51.462;12.630;2023-06-04T00:17:16;4.00;;;3.17;;
16228;SDS011;8222;51.462;12.630;2023-06-04T00:19:42;4.70;;;3.30;;
16228;SDS011;8222;51.462;12.630;2023-06-04T00:22:08;4.47;;;3.67;;
16228;SDS011;8222;51.462;12.630;2023-06-04T00:24:37;6.50;;;2.50;;
16228;SDS011;8222;51.462;12.630;2023-06-04T00:27:07;3.20;;;2.70;;
16228;SDS011;8222;51.462;12.630;2023-06-04T00:29:33;5.57;;;3.00;;
16228;SDS011;8222;51.462;12.630;2023-06-04T00:32:02;3.17;;;2.90;;
16228;SDS011;8222;51.462;12.630;2023-06-04T00:34:27;2.63;;;2.42;;
16228;SDS011;8222;51.462;12.630;2023-06-04T00:36:53;3.70;;;2.47;;
16228;SDS011;8222;51.462;12.630;2023-06-04T00:39:19;3.78;;;2.75;;
16228;SDS011;8222;51.462;12.630;2023-06-04T00:41:45;3.90;;;2.20;;
16228;SDS011;8222;51.462;12.630;2023-06-04T00:44:13;2.77;;;2.40;;
16228;SDS011;8222;51.462;12.630;2023-06-04T00:46:39;3.40;;;2.58;;
16228;SDS011;8222;51.462;12.630;2023-06-04T00:49:10;3.80;;;3.20;;
16228;SDS011;8222;51.462;12.630;2023-06-04T00:51:37;2.60;;;2.35;;
16228;SDS011;8222;51.462;12.630;2023-06-04T00:54:03;4.70;;;2.70;;
16228;SDS011;8222;51.462;12.630;2023-06-04T00:56:37;2.67;;;2.13;;
16228;SDS011;8222;51.462;12.630;2023-06-04T00:59:04;2.77;;;2.57;;
16228;SDS011;8222;51.462;12.630;2023-06-04T01:04:01;2.83;;;2.27;;
16228;SDS011;8222;51.462;12.630;2023-06-04T01:06:39;2.88;;;1.95;;
16228;SDS011;8222;51.462;12.630;2023-06-04T01:09:08;2.40;;;2.20;;
16228;SDS011;8222;51.462;12.630;2023-06-04T01:11:38;2.23;;;2.03;;
16228;SDS011;8222;51.462;12.630;2023-06-04T01:14:05;1.80;;;1.70;;
16228;SDS011;8222;51.462;12.630;2023-06-04T01:16:39;3.57;;;2.90;;
16228;SDS011;8222;51.462;12.630;2023-06-04T01:22:03;3.53;;;2.07;;
16228;SDS011;8222;51.462;12.630;2023-06-04T01:24:35;2.40;;;2.20;;
16228;SDS011;8222;51.462;12.630;2023-06-04T01:27:05;2.97;;;2.17;;
16228;SDS011;8222;51.462;12.630;2023-06-04T01:29:34;2.73;;;2.30;;
16228;SDS011;8222;51.462;12.630;2023-06-04T01:32:01;2.83;;;2.23;;
16228;SDS011;8222;51.462;12.630;2023-06-04T01:34:27;3.03;;;2.33;;
16228;SDS011;8222;51.462;12.630;2023-06-04T01:36:53;5.93;;;2.53;;
16228;SDS011;8222;51.462;12.630;2023-06-04T01:39:21;2.67;;;2.43;;
16228;SDS011;8222;51.462;12.630;2023-06-04T01:41:46;1.93;;;1.83;;
16228;SDS011;8222;51.462;12.630;2023-06-04T01:44:14;2.50;;;2.30;;
16228;SDS011;8222;51.462;12.630;2023-06-04T01:46:40;2.88;;;2.40;;
16228;SDS011;8222;51.462;12.630;2023-06-04T01:52:05;2.73;;;2.30;;
16228;SDS011;8222;51.462;12.630;2023-06-04T01:54:31;2.97;;;2.17;;
16228;SDS011;8222;51.462;12.630;2023-06-04T01:56:58;1.90;;;1.80;;
16228;SDS011;8222;51.462;12.630;2023-06-04T01:59:24;2.03;;;1.90;;
16228;SDS011;8222;51.462;12.630;2023-06-04T02:01:50;2.20;;;1.93;;
16228;SDS011;8222;51.462;12.630;2023-06-04T02:04:20;2.72;;;2.53;;
16228;SDS011;8222;51.462;12.630;2023-06-04T02:06:51;2.47;;;2.17;;
16228;SDS011;8222;51.462;12.630;2023-06-04T02:09:16;2.63;;;2.38;;
16228;SDS011;8222;51.462;12.630;2023-06-04T02:11:44;2.30;;;2.10;;
16228;SDS011;8222;51.462;12.630;2023-06-04T02:14:12;2.07;;;1.90;;
16228;SDS011;8222;51.462;12.630;2023-06-04T02:16:38;2.60;;;2.40;;
16228;SDS011;8222;51.462;12.630;2023-06-04T02:19:06;3.50;;;2.40;;
16228;SDS011;8222;51.462;12.630;2023-06-04T02:21:34;2.78;;;2.42;;
16228;SDS011;8222;51.462;12.630;2023-06-04T02:24:02;2.23;;;1.77;;
16228;SDS011;8222;51.462;12.630;2023-06-04T02:26:34;3.63;;;2.23;;
16228;SDS011;8222;51.462;12.630;2023-06-04T02:29:05;3.30;;;3.00;;
16228;SDS011;8222;51.462;12.630;2023-06-04T02:31:33;3.10;;;2.47;;
16228;SDS011;8222;51.462;12.630;2023-06-04T02:34:01;3.90;;;2.60;;
16228;SDS011;8222;51.462;12.630;2023-06-04T02:36:28;3.13;;;2.13;;
16228;SDS011;8222;51.462;12.630;2023-06-04T02:38:59;2.00;;;1.80;;
16228;SDS011;8222;51.462;12.630;2023-06-04T02:41:26;2.92;;;2.63;;
16228;SDS011;8222;51.462;12.630;2023-06-04T02:43:51;2.93;;;2.30;;
16228;SDS011;8222;51.462;12.630;2023-06-04T02:46:21;4.30;;;2.37;;
16228;SDS011;8222;51.462;12.630;2023-06-04T02:48:49;2.60;;;2.40;;
16228;SDS011;8222;51.462;12.630;2023-06-04T02:51:19;2.83;;;2.38;;
16228;SDS011;8222;51.462;12.630;2023-06-04T02:53:50;2.90;;;2.07;;
16228;SDS011;8222;51.462;12.630;2023-06-04T02:56:15;3.70;;;2.80;;
16228;SDS011;8222;51.462;12.630;2023-06-04T03:01:20;3.42;;;2.58;;
16228;SDS011;8222;51.462;12.630;2023-06-04T03:03:49;2.40;;;2.20;;
16228;SDS011;8222;51.462;12.630;2023-06-04T03:06:20;3.75;;;2.42;;
16228;SDS011;8222;51.462;12.630;2023-06-04T03:08:47;2.42;;;2.22;;
16228;SDS011;8222;51.462;12.630;2023-06-04T03:11:13;2.80;;;2.43;;
16228;SDS011;8222;51.462;12.630;2023-06-04T03:13:39;2.88;;;2.47;;
16228;SDS011;8222;51.462;12.630;2023-06-04T03:16:05;2.33;;;2.13;;
16228;SDS011;8222;51.462;12.630;2023-06-04T03:18:39;2.07;;;1.97;;
16228;SDS011;8222;51.462;12.630;2023-06-04T03:21:09;2.90;;;2.53;;
16228;SDS011;8222;51.462;12.630;2023-06-04T03:23:36;3.37;;;2.20;;
16228;SDS011;8222;51.462;12.630;2023-06-04T03:26:05;3.00;;;2.60;;
16228;SDS011;8222;51.462;12.630;2023-06-04T03:28:31;3.20;;;2.45;;
16228;SDS011;8222;51.462;12.630;2023-06-04T03:30:58;2.20;;;2.10;;
16228;SDS011;8222;51.462;12.630;2023-06-04T03:33:24;2.92;;;2.47;;
16228;SDS011;8222;51.462;12.630;2023-06-04T03:35:51;2.83;;;2.45;;
16228;SDS011;8222;51.462;12.630;2023-06-04T03:38:17;2.73;;;2.53;;
16228;SDS011;8222;51.462;12.630;2023-06-04T03:40:43;4.93;;;3.53;;
16228;SDS011;8222;51.462;12.630;2023-06-04T03:43:13;2.00;;;1.87;;
16228;SDS011;8222;51.462;12.630;2023-06-04T03:45:41;3.42;;;2.25;;
16228;SDS011;8222;51.462;12.630;2023-06-04T03:48:07;4.10;;;2.40;;
16228;SDS011;8222;51.462;12.630;2023-06-04T03:50:32;2.47;;;1.90;;
16228;SDS011;8222;51.462;12.630;2023-06-04T03:53:00;2.87;;;2.10;;
16228;SDS011;8222;51.462;12.630;2023-06-04T03:55:32;2.28;;;2.08;;
16228;SDS011;8222;51.462;12.630;2023-06-04T03:58:00;2.93;;;2.63;;
16228;SDS011;8222;51.462;12.630;2023-06-04T04:00:28;2.87;;;1.83;;
16228;SDS011;8222;51.462;12.630;2023-06-04T04:02:54;1.60;;;1.50;;
16228;SDS011;8222;51.462;12.630;2023-06-04T04:05:21;2.50;;;1.98;;
16228;SDS011;8222;51.462;12.630;2023-06-04T04:07:49;2.47;;;2.27;;
16228;SDS011;8222;51.462;12.630;2023-06-04T04:10:15;1.87;;;1.77;;
16228;SDS011;8222;51.462;12.630;2023-06-04T04:12:40;6.17;;;2.37;;
16228;SDS011;8222;51.462;12.630;2023-06-04T04:15:06;2.67;;;2.40;;
16228;SDS011;8222;51.462;12.630;2023-06-04T04:17:33;3.40;;;1.95;;
16228;SDS011;8222;51.462;12.630;2023-06-04T04:20:01;2.58;;;2.33;;
16228;SDS011;8222;51.462;12.630;2023-06-04T04:22:30;3.10;;;2.35;;
16228;SDS011;8222;51.462;12.630;2023-06-04T04:25:00;2.58;;;2.33;;
16228;SDS011;8222;51.462;12.630;2023-06-04T04:27:31;2.50;;;2.30;;
16228;SDS011;8222;51.462;12.630;2023-06-04T04:29:59;2.50;;;2.30;;
16228;SDS011;8222;51.462;12.630;2023-06-04T04:32:28;4.18;;;2.15;;
16228;SDS011;8222;51.462;12.630;2023-06-04T04:34:54;3.00;;;2.65;;
16228;SDS011;8222;51.462;12.630;2023-06-04T04:37:20;3.47;;;3.08;;
16228;SDS011;8222;51.462;12.630;2023-06-04T04:39:51;2.07;;;1.90;;
16228;SDS011;8222;51.462;12.630;2023-06-04T04:42:19;2.90;;;2.60;;
16228;SDS011;8222;51.462;12.630;2023-06-04T04:44:49;2.50;;;2.30;;
16228;SDS011;8222;51.462;12.630;2023-06-04T04:47:15;1.77;;;1.67;;
16228;SDS011;8222;51.462;12.630;2023-06-04T04:49:41;2.50;;;2.40;;
16228;SDS011;8222;51.462;12.630;2023-06-04T04:52:07;2.43;;;2.23;;
16228;SDS011;8222;51.462;12.630;2023-06-04T04:54:32;2.83;;;2.63;;
16228;SDS011;8222;51.462;12.630;2023-06-04T04:56:58;4.47;;;2.67;;
16228;SDS011;8222;51.462;12.630;2023-06-04T04:59:23;2.83;;;2.10;;
16228;SDS011;8222;51.462;12.630;2023-06-04T05:01:49;3.23;;;2.87;;
16228;SDS011;8222;51.462;12.630;2023-06-04T05:04:17;6.00;;;2.40;;
16228;SDS011;8222;51.462;12.630;2023-06-04T05:06:43;2.10;;;1.97;;
16228;SDS011;8222;51.462;12.630;2023-06-04T05:09:11;3.27;;;2.57;;
16228;SDS011;8222;51.462;12.630;2023-06-04T05:11:40;2.60;;;2.40;;
16228;SDS011;8222;51.462;12.630;2023-06-04T05:14:06;3.10;;;1.97;;
16228;SDS011;8222;51.462;12.630;2023-06-04T05:16:33;2.47;;;2.28;;
16228;SDS011;8222;51.462;12.630;2023-06-04T05:19:03;4.27;;;2.10;;
16228;SDS011;8222;51.462;12.630;2023-06-04T05:21:31;2.58;;;2.35;;
16228;SDS011;8222;51.462;12.630;2023-06-04T05:23:57;2.63;;;2.10;;
16228;SDS011;8222;51.462;12.630;2023-06-04T05:26:24;2.60;;;2.35;;
16228;SDS011;8222;51.462;12.630;2023-06-04T05:28:53;3.80;;;2.07;;
16228;SDS011;8222;51.462;12.630;2023-06-04T05:31:18;2.40;;;2.20;;
16228;SDS011;8222;51.462;12.630;2023-06-04T05:33:45;2.05;;;1.85;;
16228;SDS011;8222;51.462;12.630;2023-06-04T05:36:12;2.33;;;2.13;;
16228;SDS011;8222;51.462;12.630;2023-06-04T05:38:38;2.47;;;1.83;;
16228;SDS011;8222;51.462;12.630;2023-06-04T05:41:04;3.00;;;2.10;;
16228;SDS011;8222;51.462;12.630;2023-06-04T05:43:30;2.25;;;1.92;;
16228;SDS011;8222;51.462;12.630;2023-06-04T05:45:57;1.93;;;1.83;;
16228;SDS011;8222;51.462;12.630;2023-06-04T05:48:31;2.03;;;1.83;;
16228;SDS011;8222;51.462;12.630;2023-06-04T05:50:56;2.40;;;1.57;;
16228;SDS011;8222;51.462;12.630;2023-06-04T05:53:22;2.80;;;2.07;;
16228;SDS011;8222;51.462;12.630;2023-06-04T05:55:48;2.73;;;2.00;;
16228;SDS011;8222;51.462;12.630;2023-06-04T05:58:16;2.63;;;1.97;;
16228;SDS011;8222;51.462;12.630;2023-06-04T06:00:41;1.60;;;1.47;;
16228;SDS011;8222;51.462;12.630;2023-06-04T06:03:12;2.17;;;1.90;;
16228;SDS011;8222;51.462;12.630;2023-06-04T06:05:42;2.40;;;2.20;;
16228;SDS011;8222;51.462;12.630;2023-06-04T06:08:13;2.07;;;1.87;;
16228;SDS011;8222;51.462;12.630;2023-06-04T06:10:39;1.50;;;1.40;;
16228;SDS011;8222;51.462;12.630;2023-06-04T06:13:07;2.28;;;1.80;;
16228;SDS011;8222;51.462;12.630;2023-06-04T06:15:32;2.13;;;1.93;;
16228;SDS011;8222;51.462;12.630;2023-06-04T06:18:00;2.27;;;2.07;;
16228;SDS011;8222;51.462;12.630;2023-06-04T06:20:29;2.20;;;2.00;;
16228;SDS011;8222;51.462;12.630;2023-06-04T06:22:55;2.00;;;1.77;;
16228;SDS011;8222;51.462;12.630;2023-06-04T06:25:20;4.27;;;1.43;;
16228;SDS011;8222;51.462;12.630;2023-06-04T06:27:50;1.83;;;1.73;;
16228;SDS011;8222;51.462;12.630;2023-06-04T06:30:16;2.80;;;1.87;;
16228;SDS011;8222;51.462;12.630;2023-06-04T06:32:42;2.53;;;1.50;;
16228;SDS011;8222;51.462;12.630;2023-06-04T06:35:10;2.07;;;1.60;;
16228;SDS011;8222;51.462;12.630;2023-06-04T06:37:38;3.35;;;2.47;;
16228;SDS011;8222;51.462;12.630;2023-06-04T06:40:08;1.67;;;1.58;;
16228;SDS011;8222;51.462;12.630;2023-06-04T06:42:34;2.70;;;1.63;;
16228;SDS011;8222;51.462;12.630;2023-06-04T06:45:05;2.55;;;1.38;;
16228;SDS011;8222;51.462;12.630;2023-06-04T06:47:36;1.60;;;1.33;;
16228;SDS011;8222;51.462;12.630;2023-06-04T06:50:02;2.53;;;1.58;;
16228;SDS011;8222;51.462;12.630;2023-06-04T06:52:30;1.37;;;1.27;;
16228;SDS011;8222;51.462;12.630;2023-06-04T06:54:56;1.87;;;1.77;;
16228;SDS011;8222;51.462;12.630;2023-06-04T06:57:21;2.70;;;1.60;;
16228;SDS011;8222;51.462;12.630;2023-06-04T06:59:47;1.70;;;1.20;;
16228;SDS011;8222;51.462;12.630;2023-06-04T07:02:13;2.20;;;1.30;;
16228;SDS011;8222;51.462;12.630;2023-06-04T07:04:38;2.37;;;0.90;;
16228;SDS011;8222;51.462;12.630;2023-06-04T07:07:07;2.60;;;1.23;;
16228;SDS011;8222;51.462;12.630;2023-06-04T07:09:33;1.58;;;1.40;;
16228;SDS011;8222;51.462;12.630;2023-06-04T07:12:03;1.50;;;1.33;;
16228;SDS011;8222;51.462;12.630;2023-06-04T07:14:31;3.20;;;1.50;;
16228;SDS011;8222;51.462;12.630;2023-06-04T07:17:00;2.30;;;1.40;;
16228;SDS011;8222;51.462;12.630;2023-06-04T07:19:25;4.30;;;1.33;;
16228;SDS011;8222;51.462;12.630;2023-06-04T07:21:53;2.10;;;1.33;;
16228;SDS011;8222;51.462;12.630;2023-06-04T07:24:19;3.33;;;1.40;;
16228;SDS011;8222;51.462;12.630;2023-06-04T07:26:45;1.90;;;1.77;;
16228;SDS011;8222;51.462;12.630;2023-06-04T07:29:11;1.60;;;1.40;;
16228;SDS011;8222;51.462;12.630;2023-06-04T07:31:36;1.20;;;1.10;;
16228;SDS011;8222;51.462;12.630;2023-06-04T07:34:07;1.30;;;1.20;;
16228;SDS011;8222;51.462;12.630;2023-06-04T07:36:35;4.20;;;1.58;;
16228;SDS011;8222;51.462;12.630;2023-06-04T07:39:05;2.10;;;1.30;;
16228;SDS011;8222;51.462;12.630;2023-06-04T07:41:36;1.63;;;1.03;;
16228;SDS011;8222;51.462;12.630;2023-06-04T07:44:01;1.50;;;1.30;;
16228;SDS011;8222;51.462;12.630;2023-06-04T07:46:27;1.67;;;1.27;;
16228;SDS011;8222;51.462;12.630;2023-06-04T07:48:52;2.30;;;1.30;;
16228;SDS011;8222;51.462;12.630;2023-06-04T07:51:18;2.13;;;1.27;;
16228;SDS011;8222;51.462;12.630;2023-06-04T07:53:44;2.40;;;1.30;;
16228;SDS011;8222;51.462;12.630;2023-06-04T07:56:12;1.70;;;1.35;;
16228;SDS011;8222;51.462;12.630;2023-06-04T07:58:38;1.70;;;1.30;;
16228;SDS011;8222;51.462;12.630;2023-06-04T08:01:06;1.73;;;1.40;;
16228;SDS011;8222;51.462;12.630;2023-06-04T08:03:32;1.20;;;1.10;;
16228;SDS011;8222;51.462;12.630;2023-06-04T08:06:00;1.80;;;1.10;;
16228;SDS011;8222;51.462;12.630;2023-06-04T08:08:26;1.37;;;1.10;;
16228;SDS011;8222;51.462;12.630;2023-06-04T08:10:52;1.17;;;1.10;;
16228;SDS011;8222;51.462;12.630;2023-06-04T08:13:17;1.30;;;1.20;;
16228;SDS011;8222;51.462;12.630;2023-06-04T08:15:43;2.43;;;1.33;;
16228;SDS011;8222;51.462;12.630;2023-06-04T08:18:09;5.60;;;1.03;;
16228;SDS011;8222;51.462;12.630;2023-06-04T08:20:37;1.50;;;0.90;;
16228;SDS011;8222;51.462;12.630;2023-06-04T08:23:05;1.63;;;1.53;;
16228;SDS011;8222;51.462;12.630;2023-06-04T08:25:34;2.40;;;1.17;;
16228;SDS011;8222;51.462;12.630;2023-06-04T08:28:01;1.40;;;1.10;;
16228;SDS011;8222;51.462;12.630;2023-06-04T08:30:32;0.80;;;0.80;;
16228;SDS011;8222;51.462;12.630;2023-06-04T08:33:00;1.17;;;1.00;;
16228;SDS011;8222;51.462;12.630;2023-06-04T08:35:28;1.20;;;0.80;;
16228;SDS011;8222;51.462;12.630;2023-06-04T08:37:54;1.00;;;0.70;;
16228;SDS011;8222;51.462;12.630;2023-06-04T08:40:20;2.73;;;1.00;;
16228;SDS011;8222;51.462;12.630;2023-06-04T08:42:47;0.95;;;0.85;;
16228;SDS011;8222;51.462;12.630;2023-06-04T08:45:13;1.90;;;1.00;;
16228;SDS011;8222;51.462;12.630;2023-06-04T08:47:43;1.13;;;1.00;;
16228;SDS011;8222;51.462;12.630;2023-06-04T08:50:12;1.73;;;1.00;;
16228;SDS011;8222;51.462;12.630;2023-06-04T08:52:43;1.98;;;0.82;;
16228;SDS011;8222;51.462;12.630;2023-06-04T08:55:10;2.55;;;0.90;;
16228;SDS011;8222;51.462;12.630;2023-06-04T08:57:39;4.77;;;1.10;;
16228;SDS011;8222;51.462;12.630;2023-06-04T09:00:05;1.17;;;1.10;;
16228;SDS011;8222;51.462;12.630;2023-06-04T09:02:33;2.30;;;1.02;;
16228;SDS011;8222;51.462;12.630;2023-06-04T09:05:05;1.10;;;1.00;;
16228;SDS011;8222;51.462;12.630;2023-06-04T09:07:38;1.43;;;0.90;;
16228;SDS011;8222;51.462;12.630;2023-06-04T09:10:08;2.30;;;1.37;;
16228;SDS011;8222;51.462;12.630;2023-06-04T09:12:43;1.37;;;1.03;;
16228;SDS011;8222;51.462;12.630;2023-06-04T09:15:11;1.35;;;0.90;;
16228;SDS011;8222;51.462;12.630;2023-06-04T09:17:42;1.33;;;0.80;;
16228;SDS011;8222;51.462;12.630;2023-06-04T09:20:22;1.77;;;1.10;;
16228;SDS011;8222;51.462;12.630;2023-06-04T09:22:49;1.27;;;1.00;;
16228;SDS011;8222;51.462;12.630;2023-06-04T09:25:19;1.90;;;0.90;;
16228;SDS011;8222;51.462;12.630;2023-06-04T09:27:56;0.70;;;0.70;;
16228;SDS011;8222;51.462;12.630;2023-06-04T09:30:33;2.10;;;1.23;;
16228;SDS011;8222;51.462;12.630;2023-06-04T09:33:08;1.53;;;0.90;;
16228;SDS011;8222;51.462;12.630;2023-06-04T09:35:37;3.80;;;1.17;;
16228;SDS011;8222;51.462;12.630;2023-06-04T09:38:08;0.73;;;0.70;;
16228;SDS011;8222;51.462;12.630;2023-06-04T09:40:35;2.50;;;1.20;;
16228;SDS011;8222;51.462;12.630;2023-06-04T09:43:04;2.00;;;1.83;;
16228;SDS011;8222;51.462;12.630;2023-06-04T09:45:31;1.83;;;1.30;;
16228;SDS011;8222;51.462;12.630;2023-06-04T09:48:05;2.40;;;1.13;;
16228;SDS011;8222;51.462;12.630;2023-06-04T09:50:46;5.43;;;1.33;;
16228;SDS011;8222;51.462;12.630;2023-06-04T09:53:18;1.40;;;0.97;;
16228;SDS011;8222;51.462;12.630;2023-06-04T09:55:57;1.00;;;0.90;;
16228;SDS011;8222;51.462;12.630;2023-06-04T09:58:33;1.53;;;1.43;;
16228;SDS011;8222;51.462;12.630;2023-06-04T10:01:22;0.80;;;0.80;;
16228;SDS011;8222;51.462;12.630;2023-06-04T10:03:57;2.78;;;1.10;;
16228;SDS011;8222;51.462;12.630;2023-06-04T10:06:27;1.35;;;1.10;;
16228;SDS011;8222;51.462;12.630;2023-06-04T10:09:17;2.20;;;1.20;;
16228;SDS011;8222;51.462;12.630;2023-06-04T10:11:52;1.27;;;1.17;;
16228;SDS011;8222;51.462;12.630;2023-06-04T10:17:22;1.80;;;1.20;;
16228;SDS011;8222;51.462;12.630;2023-06-04T10:19:55;1.23;;;1.13;;
16228;SDS011;8222;51.462;12.630;2023-06-04T10:22:25;1.10;;;1.00;;
16228;SDS011;8222;51.462;12.630;2023-06-04T10:25:23;2.70;;;1.17;;
16228;SDS011;8222;51.462;12.630;2023-06-04T10:27:57;1.13;;;1.03;;
16228;SDS011;8222;51.462;12.630;2023-06-04T10:30:29;1.07;;;0.97;;
16228;SDS011;8222;51.462;12.630;2023-06-04T10:36:31;1.98;;;1.25;;
16228;SDS011;8222;51.462;12.630;2023-06-04T10:39:08;1.90;;;1.15;;
16228;SDS011;8222;51.462;12.630;2023-06-04T10:41:36;1.55;;;1.20;;
16228;SDS011;8222;51.462;12.630;2023-06-04T10:44:24;1.30;;;1.20;;
16228;SDS011;8222;51.462;12.630;2023-06-04T10:46:51;1.17;;;1.17;;
16228;SDS011;8222;51.462;12.630;2023-06-04T10:49:25;0.77;;;0.77;;
16228;SDS011;8222;51.462;12.630;2023-06-04T10:52:25;1.10;;;1.00;;
16228;SDS011;8222;51.462;12.630;2023-06-04T10:55:10;1.80;;;1.30;;
16228;SDS011;8222;51.462;12.630;2023-06-04T10:58:31;1.33;;;1.00;;
16228;SDS011;8222;51.462;12.630;2023-06-04T11:00:41;1.30;;;1.00;;
16228;SDS011;8222;51.462;12.630;2023-06-04T11:03:21;1.53;;;1.10;;
16228;SDS011;8222;51.462;12.630;2023-06-04T11:06:40;1.20;;;1.03;;
16228;SDS011;8222;51.462;12.630;2023-06-04T11:09:51;0.93;;;0.90;;
16228;SDS011;8222;51.462;12.630;2023-06-04T11:12:23;1.00;;;0.90;;
16228;SDS011;8222;51.462;12.630;2023-06-04T11:15:12;2.17;;;1.08;;
16228;SDS011;8222;51.462;12.630;2023-06-04T11:17:53;1.10;;;1.00;;
16228;SDS011;8222;51.462;12.630;2023-06-04T11:24:17;1.13;;;1.02;;
16228;SDS011;8222;51.462;12.630;2023-06-04T11:30:45;1.60;;;1.15;;
16228;SDS011;8222;51.462;12.630;2023-06-04T11:37:52;1.95;;;1.40;;
16228;SDS011;8222;51.462;12.630;2023-06-04T11:41:13;0.97;;;0.87;;
16228;SDS011;8222;51.462;12.630;2023-06-04T11:44:14;1.60;;;1.00;;
16228;SDS011;8222;51.462;12.630;2023-06-04T11:47:41;1.10;;;1.00;;
16228;SDS011;8222;51.462;12.630;2023-06-04T11:53:50;1.67;;;0.87;;
16228;SDS011;8222;51.462;12.630;2023-06-04T12:00:20;1.73;;;1.00;;
16228;SDS011;8222;51.462;12.630;2023-06-04T12:18:10;1.20;;;1.00;;
16228;SDS011;8222;51.462;12.630;2023-06-04T12:20:47;1.63;;;1.02;;
16228;SDS011;8222;51.462;12.630;2023-06-04T12:23:50;0.77;;;0.77;;
16228;SDS011;8222;51.462;12.630;2023-06-04T16:01:25;1.48;;;1.38;;
16228;SDS011;8222;51.462;12.630;2023-06-04T16:04:30;1.38;;;1.13;;
16228;SDS011;8222;51.462;12.630;2023-06-04T16:07:49;1.30;;;1.20;;
16228;SDS011;8222;51.462;12.630;2023-06-04T16:10:46;1.40;;;1.30;;
16228;SDS011;8222;51.462;12.630;2023-06-04T16:21:36;1.30;;;1.20;;
16228;SDS011;8222;51.462;12.630;2023-06-04T16:24:49;1.30;;;1.20;;
16228;SDS011;8222;51.462;12.630;2023-06-04T16:27:47;1.52;;;1.15;;
16228;SDS011;8222;51.462;12.630;2023-06-04T16:30:42;2.47;;;1.20;;
16228;SDS011;8222;51.462;12.630;2023-06-04T16:52:13;1.15;;;1.05;;
16228;SDS011;8222;51.462;12.630;2023-06-04T16:55:14;1.58;;;1.00;;
16228;SDS011;8222;51.462;12.630;2023-06-04T16:58:18;2.15;;;1.10;;
16228;SDS011;8222;51.462;12.630;2023-06-04T17:00:55;1.42;;;1.25;;
16228;SDS011;8222;51.462;12.630;2023-06-04T17:03:35;1.30;;;1.20;;
16228;SDS011;8222;51.462;12.630;2023-06-04T17:06:21;3.27;;;1.30;;
16228;SDS011;8222;51.462;12.630;2023-06-04T17:08:46;1.33;;;1.20;;
16228;SDS011;8222;51.462;12.630;2023-06-04T17:11:31;1.20;;;1.10;;
16228;SDS011;8222;51.462;12.630;2023-06-04T17:14:19;1.35;;;1.02;;
16228;SDS011;8222;51.462;12.630;2023-06-04T17:19:58;1.80;;;1.00;;
16228;SDS011;8222;51.462;12.630;2023-06-04T17:22:45;1.40;;;1.30;;
16228;SDS011;8222;51.462;12.630;2023-06-04T17:25:16;1.85;;;1.30;;
16228;SDS011;8222;51.462;12.630;2023-06-04T17:27:47;1.42;;;1.33;;
16228;SDS011;8222;51.462;12.630;2023-06-04T17:30:21;1.90;;;1.23;;
16228;SDS011;8222;51.462;12.630;2023-06-04T17:32:53;1.38;;;1.27;;
16228;SDS011;8222;51.462;12.630;2023-06-04T17:35:22;1.85;;;1.45;;
16228;SDS011;8222;51.462;12.630;2023-06-04T17:38:09;1.37;;;1.20;;
16228;SDS011;8222;51.462;12.630;2023-06-04T17:40:37;2.95;;;1.50;;
16228;SDS011;8222;51.462;12.630;2023-06-04T17:43:05;1.60;;;1.50;;
16228;SDS011;8222;51.462;12.630;2023-06-04T17:45:35;1.52;;;1.40;;
16228;SDS011;8222;51.462;12.630;2023-06-04T17:48:39;1.40;;;1.30;;
16228;SDS011;8222;51.462;12.630;2023-06-04T17:51:07;1.20;;;1.10;;
16228;SDS011;8222;51.462;12.630;2023-06-04T17:53:32;1.70;;;1.38;;
16228;SDS011;8222;51.462;12.630;2023-06-04T17:55:58;1.27;;;0.95;;
16228;SDS011;8222;51.462;12.630;2023-06-04T17:58:24;1.15;;;1.10;;
16228;SDS011;8222;51.462;12.630;2023-06-04T18:01:01;2.33;;;1.38;;
16228;SDS011;8222;51.462;12.630;2023-06-04T18:03:33;1.00;;;1.00;;
16228;SDS011;8222;51.462;12.630;2023-06-04T18:06:02;1.30;;;1.20;;
16228;SDS011;8222;51.462;12.630;2023-06-04T18:08:38;1.30;;;1.20;;
16228;SDS011;8222;51.462;12.630;2023-06-04T18:11:07;1.53;;;1.23;;
16228;SDS011;8222;51.462;12.630;2023-06-04T18:13:32;1.27;;;1.17;;
16228;SDS011;8222;51.462;12.630;2023-06-04T18:15:58;2.47;;;1.50;;
16228;SDS011;8222;51.462;12.630;2023-06-04T18:18:36;1.13;;;0.90;;
16228;SDS011;8222;51.462;12.630;2023-06-04T18:21:01;1.57;;;1.20;;
16228;SDS011;8222;51.462;12.630;2023-06-04T18:23:45;1.30;;;1.17;;
16228;SDS011;8222;51.462;12.630;2023-06-04T18:26:14;1.60;;;1.27;;
16228;SDS011;8222;51.462;12.630;2023-06-04T18:28:45;2.00;;;1.00;;
16228;SDS011;8222;51.462;12.630;2023-06-04T18:31:13;1.73;;;1.47;;
16228;SDS011;8222;51.462;12.630;2023-06-04T18:33:53;1.20;;;1.10;;
16228;SDS011;8222;51.462;12.630;2023-06-04T18:36:29;2.10;;;1.10;;
16228;SDS011;8222;51.462;12.630;2023-06-04T18:39:01;1.47;;;1.37;;
16228;SDS011;8222;51.462;12.630;2023-06-04T18:41:32;1.30;;;1.20;;
16228;SDS011;8222;51.462;12.630;2023-06-04T18:44:00;1.53;;;1.17;;
16228;SDS011;8222;51.462;12.630;2023-06-04T18:46:25;2.43;;;1.10;;
16228;SDS011;8222;51.462;12.630;2023-06-04T18:48:51;1.80;;;1.40;;
16228;SDS011;8222;51.462;12.630;2023-06-04T18:51:20;7.47;;;1.30;;
16228;SDS011;8222;51.462;12.630;2023-06-04T18:53:48;1.52;;;1.40;;
16228;SDS011;8222;51.462;12.630;2023-06-04T18:56:16;1.30;;;1.20;;
16228;SDS011;8222;51.462;12.630;2023-06-04T18:58:44;1.30;;;1.00;;
16228;SDS011;8222;51.462;12.630;2023-06-04T19:01:14;2.83;;;1.17;;
16228;SDS011;8222;51.462;12.630;2023-06-04T19:03:40;2.27;;;1.20;;
16228;SDS011;8222;51.462;12.630;2023-06-04T19:06:07;3.20;;;1.30;;
16228;SDS011;8222;51.462;12.630;2023-06-04T19:08:33;1.60;;;1.25;;
16228;SDS011;8222;51.462;12.630;2023-06-04T19:10:59;0.83;;;0.83;;
16228;SDS011;8222;51.462;12.630;2023-06-04T19:13:33;1.35;;;1.25;;
16228;SDS011;8222;51.462;12.630;2023-06-04T19:15:58;3.60;;;1.60;;
16228;SDS011;8222;51.462;12.630;2023-06-04T19:18:24;4.78;;;1.20;;
16228;SDS011;8222;51.462;12.630;2023-06-04T19:20:52;1.45;;;1.33;;
16228;SDS011;8222;51.462;12.630;2023-06-04T19:23:18;1.20;;;1.10;;
16228;SDS011;8222;51.462;12.630;2023-06-04T19:25:47;1.52;;;1.10;;
16228;SDS011;8222;51.462;12.630;2023-06-04T19:28:13;1.27;;;1.20;;
16228;SDS011;8222;51.462;12.630;2023-06-04T19:30:46;1.70;;;1.60;;
16228;SDS011;8222;51.462;12.630;2023-06-04T19:33:21;3.00;;;1.90;;
16228;SDS011;8222;51.462;12.630;2023-06-04T19:35:47;1.90;;;1.80;;
16228;SDS011;8222;51.462;12.630;2023-06-04T19:38:14;1.73;;;1.63;;
16228;SDS011;8222;51.462;12.630;2023-06-04T19:40:40;2.00;;;1.90;;
16228;SDS011;8222;51.462;12.630;2023-06-04T19:43:06;1.60;;;1.50;;
16228;SDS011;8222;51.462;12.630;2023-06-04T19:45:34;3.70;;;1.47;;
16228;SDS011;8222;51.462;12.630;2023-06-04T19:47:59;1.50;;;1.40;;
16228;SDS011;8222;51.462;12.630;2023-06-04T19:50:25;1.58;;;1.40;;
16228;SDS011;8222;51.462;12.630;2023-06-04T19:52:53;2.22;;;1.50;;
16228;SDS011;8222;51.462;12.630;2023-06-04T19:55:21;1.43;;;1.30;;
16228;SDS011;8222;51.462;12.630;2023-06-04T19:57:51;3.80;;;1.57;;
16228;SDS011;8222;51.462;12.630;2023-06-04T20:00:17;2.28;;;2.08;;
16228;SDS011;8222;51.462;12.630;2023-06-04T20:02:43;1.40;;;1.30;;
16228;SDS011;8222;51.462;12.630;2023-06-04T20:05:11;2.70;;;1.40;;
16228;SDS011;8222;51.462;12.630;2023-06-04T20:07:37;1.33;;;1.23;;